Time;durP1;ratioP1;P1;durP2;ratioP2;P2;SDS_P1;SDS_P2;PMS_P1;PMS_P2;Temp;Humidity;BMP_temperature;BMP_pressure;BME280_temperature;BME280_humidity;BME280_pressure;Samples;Min_cycle;Max_cycle;Signal;HPM_P1;HPM_P2
2021/01/09 05:00:43;;;;;;;1999.90;999.90;;;2.80;99.90;;;;;;5710104;23;20477;-76
2021/01/09 05:03:10;;;;;;;1999.90;999.90;;;2.60;99.90;;;;;;4877397;29;20268;-77
2021/01/09 05:05:36;;;;;;;1999.90;999.90;;;2.70;99.90;;;;;;4878077;29;20204;-77
2021/01/09 05:08:04;;;;;;;1999.90;999.90;;;2.70;99.90;;;;;;4878136;29;20227;-76
2021/01/09 05:10:34;;;;;;;1999.90;999.90;;;2.80;99.90;;;;;;4878264;29;20266;-77
2021/01/09 05:13:03;;;;;;;1999.90;999.90;;;2.80;99.90;;;;;;4878251;29;20220;-76
2021/01/09 05:15:35;;;;;;;1999.90;999.90;;;2.90;99.90;;;;;;4880196;29;20275;-78
2021/01/09 05:18:03;;;;;;;1999.90;999.90;;;3.00;99.90;;;;;;4880510;29;20241;-76
2021/01/09 05:20:31;;;;;;;1999.90;999.90;;;3.00;99.90;;;;;;4880848;29;20228;-77
2021/01/09 05:22:59;;;;;;;1999.90;999.90;;;3.00;99.90;;;;;;4880726;29;20208;-77
2021/01/09 05:25:27;;;;;;;1999.90;999.90;;;3.10;99.90;;;;;;4880487;29;20220;-79
2021/01/09 05:27:55;;;;;;;1999.90;999.90;;;2.90;99.90;;;;;;4880289;29;20688;-78
2021/01/09 05:30:22;;;;;;;1999.90;999.90;;;2.70;99.90;;;;;;4880834;29;20216;-78
2021/01/09 05:32:49;;;;;;;1999.90;999.90;;;2.70;99.90;;;;;;4881099;29;20204;-77
2021/01/09 05:35:18;;;;;;;1999.90;999.90;;;2.70;99.90;;;;;;4880760;29;20625;-78
2021/01/09 05:37:48;;;;;;;1999.90;999.90;;;2.90;99.90;;;;;;4880784;29;20208;-79
2021/01/09 05:40:15;;;;;;;1999.90;999.90;;;3.00;99.90;;;;;;4880409;29;20219;-77
2021/01/09 05:42:42;;;;;;;1999.90;999.90;;;3.10;99.90;;;;;;4875524;29;20204;-80
2021/01/09 05:45:12;;;;;;;1999.90;999.90;;;3.00;99.90;;;;;;4876244;29;20205;-80
2021/01/09 05:47:39;;;;;;;1999.90;999.90;;;3.00;99.90;;;;;;4902123;29;20223;-80
2021/01/09 05:50:08;;;;;;;1999.90;999.90;;;3.10;99.90;;;;;;4903012;29;20227;-80
2021/01/09 05:52:38;;;;;;;1999.90;999.90;;;2.80;99.90;;;;;;4902243;29;20580;-80
2021/01/09 05:55:07;;;;;;;1999.90;999.90;;;2.70;99.90;;;;;;4902641;29;20211;-79
2021/01/09 05:57:35;;;;;;;1999.90;999.90;;;2.70;99.90;;;;;;4903225;29;20199;-80
2021/01/09 06:00:06;;;;;;;1999.90;999.90;;;2.70;99.90;;;;;;4902308;29;20290;-79
2021/01/09 06:02:48;;;;;;;1999.90;999.90;;;2.90;99.90;;;;;;4902526;29;20239;-79
2021/01/09 06:05:18;;;;;;;1999.90;999.90;;;2.90;99.90;;;;;;4903039;29;20211;-80
2021/01/09 06:07:48;;;;;;;1999.90;999.90;;;3.10;99.90;;;;;;4902338;29;20232;-79
2021/01/09 06:10:17;;;;;;;1999.90;999.90;;;3.00;99.90;;;;;;4902291;29;20614;-79
2021/01/09 06:12:59;;;;;;;1999.90;999.90;;;2.90;99.90;;;;;;4902237;29;20259;-80
2021/01/09 06:15:30;;;;;;;1999.90;999.90;;;2.90;99.90;;;;;;4902410;29;20207;-79
2021/01/09 06:17:57;;;;;;;1999.90;999.90;;;2.90;99.90;;;;;;4901817;29;20203;-80
2021/01/09 06:20:25;;;;;;;1999.90;999.90;;;2.70;99.90;;;;;;4901743;29;20677;-80
2021/01/09 06:22:54;;;;;;;1999.90;999.90;;;2.60;99.90;;;;;;4902007;29;20211;-80
2021/01/09 06:25:22;;;;;;;1999.90;999.90;;;2.60;99.90;;;;;;4902820;29;20342;-79
2021/01/09 06:27:50;;;;;;;1999.90;999.90;;;2.70;99.90;;;;;;4902551;29;20243;-80
2021/01/09 06:30:20;;;;;;;1999.90;999.90;;;2.70;99.90;;;;;;4902354;29;20637;-79
2021/01/09 06:32:55;;;;;;;1999.90;999.90;;;2.50;99.90;;;;;;4902213;29;20236;-79
2021/01/09 06:35:23;;;;;;;1999.90;999.90;;;2.40;99.90;;;;;;4902307;29;20645;-79
2021/01/09 06:37:50;;;;;;;1999.90;999.90;;;2.60;99.90;;;;;;4902256;29;20203;-79
2021/01/09 06:40:18;;;;;;;1999.90;999.90;;;2.60;99.90;;;;;;4901418;29;20561;-77
2021/01/09 06:42:48;;;;;;;1999.90;999.90;;;2.50;99.90;;;;;;4901219;29;20244;-79
2021/01/09 06:45:16;;;;;;;1999.90;999.90;;;2.40;99.90;;;;;;4900635;29;20218;-76
2021/01/09 06:47:57;;;;;;;1999.90;999.90;;;2.40;99.90;;;;;;4900619;29;20275;-77
2021/01/09 06:50:33;;;;;;;1999.90;999.90;;;2.40;99.90;;;;;;4900626;29;20211;-76
2021/01/09 06:53:02;;;;;;;1999.90;999.90;;;2.40;99.90;;;;;;4900926;29;20234;-77
2021/01/09 06:55:57;;;;;;;1999.90;999.90;;;2.40;99.90;;;;;;4901027;29;20208;-77
2021/01/09 06:58:27;;;;;;;1999.90;999.90;;;2.40;99.90;;;;;;4900622;29;20200;-77
2021/01/09 07:01:21;;;;;;;1999.90;999.90;;;2.40;99.90;;;;;;4901928;29;20239;-79
2021/01/09 07:03:48;;;;;;;1999.90;999.90;;;2.40;99.90;;;;;;4901747;29;20265;-79
2021/01/09 07:06:15;;;;;;;1999.90;999.90;;;2.40;99.90;;;;;;4892188;29;20207;-80
2021/01/09 07:08:43;;;;;;;1999.90;999.90;;;2.40;99.90;;;;;;4883689;29;20224;-76
2021/01/09 07:11:14;;;;;;;1999.90;999.90;;;2.40;99.90;;;;;;4888624;29;20628;-76
2021/01/09 07:13:41;;;;;;;1999.90;999.90;;;2.40;99.90;;;;;;4886143;29;20608;-77
2021/01/09 07:16:10;;;;;;;1999.90;999.90;;;2.30;99.90;;;;;;4888032;29;20636;-76
2021/01/09 07:18:39;;;;;;;1999.90;999.90;;;2.20;99.90;;;;;;4889356;29;20595;-77
2021/01/09 07:21:08;;;;;;;1999.90;999.90;;;2.20;99.90;;;;;;4886057;29;20224;-79
2021/01/09 07:23:35;;;;;;;1999.90;999.90;;;2.20;99.90;;;;;;4885816;29;20237;-80
2021/01/09 07:26:04;;;;;;;1999.90;999.90;;;2.30;99.90;;;;;;4888643;29;20204;-80
2021/01/09 07:28:35;;;;;;;1999.90;999.90;;;2.30;99.90;;;;;;4884210;29;20222;-79
2021/01/09 07:31:07;;;;;;;1999.90;999.90;;;2.30;99.90;;;;;;4885439;29;20219;-78
2021/01/09 07:33:35;;;;;;;1999.90;999.90;;;2.40;99.90;;;;;;4890469;29;20248;-81
2021/01/09 07:36:02;;;;;;;1999.90;999.90;;;2.50;99.90;;;;;;4888733;29;20265;-77
2021/01/09 07:38:30;;;;;;;1999.90;999.90;;;2.50;99.90;;;;;;4889666;29;20195;-77
2021/01/09 07:40:58;;;;;;;1999.90;999.90;;;2.60;99.90;;;;;;4890236;29;20280;-77
2021/01/09 07:43:35;;;;;;;1999.90;999.90;;;2.60;99.90;;;;;;4886139;29;20554;-78
2021/01/09 07:46:22;;;;;;;1999.90;999.90;;;2.50;99.90;;;;;;4888861;29;20271;-77
2021/01/09 07:48:50;;;;;;;1999.90;999.90;;;2.40;99.90;;;;;;4887378;29;20244;-78
2021/01/09 07:51:18;;;;;;;1999.90;999.90;;;2.40;99.90;;;;;;4890648;29;20645;-78
2021/01/09 07:53:46;;;;;;;1999.90;999.90;;;2.40;99.90;;;;;;4887651;29;20208;-80
2021/01/09 07:56:37;;;;;;;1999.90;999.90;;;2.40;99.90;;;;;;4889459;29;20338;-77
2021/01/09 07:59:06;;;;;;;1999.90;999.90;;;2.30;99.90;;;;;;4889722;29;20196;-77
2021/01/09 08:01:42;;;;;;;1999.90;999.90;;;2.40;99.90;;;;;;4890947;29;20246;-79
2021/01/09 08:04:11;;;;;;;1999.90;999.90;;;2.50;99.90;;;;;;4887164;29;20200;-79
2021/01/09 08:06:38;;;;;;;1999.90;999.90;;;2.40;99.90;;;;;;4894650;29;20685;-78
2021/01/09 08:09:05;;;;;;;1999.90;999.90;;;2.40;99.90;;;;;;4885735;29;20228;-78
2021/01/09 08:11:32;;;;;;;1999.90;999.90;;;2.40;99.90;;;;;;4881084;29;20255;-78
2021/01/09 08:14:04;;;;;;;1999.90;999.90;;;2.50;99.90;;;;;;4890082;29;20740;-79
2021/01/09 08:16:30;;;;;;;1999.90;999.90;;;2.50;99.90;;;;;;4880195;29;20260;-78
2021/01/09 08:19:14;;;;;;;1999.90;999.90;;;2.60;99.90;;;;;;4880925;29;20211;-78
2021/01/09 08:21:41;;;;;;;1999.90;999.90;;;2.60;99.90;;;;;;4881206;29;20597;-80
2021/01/09 08:24:09;;;;;;;1999.90;999.90;;;2.50;99.90;;;;;;4882761;29;20901;-79
2021/01/09 08:26:36;;;;;;;1999.90;999.90;;;2.40;99.90;;;;;;4893120;29;20200;-76
2021/01/09 08:29:06;;;;;;;1999.90;999.90;;;2.50;99.90;;;;;;4888194;29;20215;-77
2021/01/09 08:31:36;;;;;;;1999.90;999.90;;;2.50;99.90;;;;;;4897306;29;20647;-78
2021/01/09 08:34:03;;;;;;;1999.90;999.90;;;2.50;99.90;;;;;;4881817;29;20251;-77
2021/01/09 08:36:30;;;;;;;1999.90;999.90;;;2.50;99.90;;;;;;4880433;29;20208;-77
2021/01/09 08:38:59;;;;;;;1999.90;999.90;;;2.50;99.90;;;;;;4881248;29;20250;-77
2021/01/09 08:41:36;;;;;;;1999.90;999.90;;;2.50;99.90;;;;;;4882222;29;20231;-78
2021/01/09 08:44:08;;;;;;;1999.90;999.90;;;2.60;99.90;;;;;;4879550;29;20215;-77
2021/01/09 08:46:36;;;;;;;1999.90;999.90;;;2.60;99.90;;;;;;4878520;29;20292;-78
2021/01/09 08:49:03;;;;;;;1999.90;999.90;;;2.80;99.90;;;;;;4880310;29;20223;-77
2021/01/09 08:51:32;;;;;;;1999.90;999.90;;;2.70;99.90;;;;;;4879460;29;20238;-78
2021/01/09 08:54:03;;;;;;;1999.90;999.90;;;2.70;99.90;;;;;;4879552;29;20224;-77
2021/01/09 08:56:32;;;;;;;1999.90;999.90;;;2.70;99.90;;;;;;4881142;29;20260;-78
2021/01/09 08:59:05;;;;;;;1999.90;999.90;;;2.80;99.90;;;;;;4881242;29;20603;-78
2021/01/09 09:01:36;;;;;;;1999.90;999.90;;;2.60;99.90;;;;;;4881462;29;20232;-76
2021/01/09 09:04:06;;;;;;;1999.90;999.90;;;2.70;99.90;;;;;;4884344;29;20215;-77
2021/01/09 09:06:38;;;;;;;1999.90;999.90;;;2.80;99.90;;;;;;4880026;29;20212;-77
2021/01/09 09:09:05;;;;;;;1999.90;999.90;;;2.70;99.90;;;;;;4877361;29;20713;-76
2021/01/09 09:11:33;;;;;;;1999.90;999.90;;;2.80;99.90;;;;;;4881422;29;20586;-76
2021/01/09 09:14:07;;;;;;;1999.90;999.90;;;2.80;99.90;;;;;;4876887;29;20212;-77
2021/01/09 09:16:37;;;;;;;1999.90;999.90;;;2.80;99.90;;;;;;4878415;29;20200;-77
2021/01/09 09:19:15;;;;;;;1999.90;999.90;;;2.90;99.90;;;;;;4878351;29;20246;-79
2021/01/09 09:21:44;;;;;;;1999.90;999.90;;;2.80;99.90;;;;;;4888196;29;20242;-78
2021/01/09 09:24:12;;;;;;;1999.90;999.90;;;2.90;99.90;;;;;;4888056;29;20287;-79
2021/01/09 09:26:41;;;;;;;1999.90;999.90;;;2.90;99.90;;;;;;4891565;29;20203;-79
2021/01/09 09:29:09;;;;;;;1999.90;999.90;;;2.90;99.90;;;;;;4897293;29;20219;-78
2021/01/09 09:31:41;;;;;;;1999.90;999.90;;;2.90;99.90;;;;;;4902341;29;20317;-76
2021/01/09 09:34:09;;;;;;;1999.90;999.90;;;2.90;99.90;;;;;;4900374;29;20246;-77
2021/01/09 09:36:39;;;;;;;1999.90;999.90;;;2.90;99.90;;;;;;4901044;29;20210;-78
2021/01/09 09:39:17;;;;;;;1999.90;999.90;;;2.80;99.90;;;;;;4904713;29;20271;-78
2021/01/09 09:41:55;;;;;;;1999.90;999.90;;;2.90;99.90;;;;;;4905187;29;20247;-79
2021/01/09 09:44:34;;;;;;;1999.90;999.90;;;2.80;99.90;;;;;;4903909;29;20199;-77
2021/01/09 09:47:03;;;;;;;1999.90;999.90;;;3.00;99.90;;;;;;4903112;29;20211;-77
2021/01/09 09:49:31;;;;;;;1999.90;999.90;;;2.90;99.90;;;;;;4901794;29;20258;-78
2021/01/09 09:51:58;;;;;;;1999.90;999.90;;;3.00;99.90;;;;;;4902512;29;20235;-79
2021/01/09 09:54:29;;;;;;;1999.90;999.90;;;3.00;99.90;;;;;;4903185;29;20263;-78
2021/01/09 09:56:57;;;;;;;1999.90;999.90;;;3.00;99.90;;;;;;4904845;29;20298;-79
2021/01/09 09:59:28;;;;;;;1999.90;999.90;;;2.90;99.90;;;;;;4904163;29;20624;-81
2021/01/09 10:01:59;;;;;;;1999.90;999.90;;;3.00;99.90;;;;;;4903770;29;20235;-79
2021/01/09 10:04:29;;;;;;;1999.90;999.90;;;3.00;99.90;;;;;;4904098;29;20681;-79
2021/01/09 10:06:56;;;;;;;1999.90;999.90;;;3.00;99.90;;;;;;4898299;29;20585;-78
2021/01/09 10:09:25;;;;;;;1999.90;999.90;;;2.90;99.90;;;;;;4881361;29;20246;-78
2021/01/09 10:11:53;;;;;;;1999.90;999.90;;;2.90;99.90;;;;;;4904092;29;20717;-80
2021/01/09 10:14:22;;;;;;;1999.90;999.90;;;2.90;99.90;;;;;;4903037;29;20204;-80
2021/01/09 10:16:49;;;;;;;1999.90;999.90;;;2.90;99.90;;;;;;4904737;29;20215;-79
2021/01/09 10:19:18;;;;;;;1999.90;999.90;;;2.90;99.90;;;;;;4903993;29;20203;-79
2021/01/09 10:21:46;;;;;;;1999.90;999.90;;;3.00;99.90;;;;;;4903167;29;20227;-79
2021/01/09 10:24:13;;;;;;;1999.90;999.90;;;3.00;99.90;;;;;;4904106;29;20204;-79
2021/01/09 10:26:40;;;;;;;1999.90;999.90;;;3.00;99.90;;;;;;4902311;29;20210;-80
2021/01/09 10:29:07;;;;;;;1999.90;999.90;;;3.00;99.90;;;;;;4904222;29;20223;-78
2021/01/09 10:31:36;;;;;;;1999.90;999.90;;;3.00;99.90;;;;;;4909383;29;20629;-79
2021/01/09 10:34:05;;;;;;;1999.90;999.90;;;2.90;99.90;;;;;;4907781;29;20219;-79
2021/01/09 10:36:34;;;;;;;1999.90;999.90;;;3.00;99.90;;;;;;4909564;29;20717;-81
2021/01/09 10:39:03;;;;;;;1999.90;999.90;;;3.20;99.90;;;;;;4913925;29;20203;-81
2021/01/09 10:41:30;;;;;;;1999.90;999.90;;;3.10;99.90;;;;;;4915293;29;20248;-80
2021/01/09 10:44:17;;;;;;;1999.90;999.90;;;3.00;99.90;;;;;;4914349;29;20242;-80
2021/01/09 10:46:44;;;;;;;1999.90;999.90;;;3.00;99.90;;;;;;4907006;29;20214;-78
2021/01/09 10:49:10;;;;;;;1999.90;999.90;;;2.90;99.90;;;;;;4903747;29;20222;-76
2021/01/09 10:51:42;;;;;;;1999.90;999.90;;;2.80;99.90;;;;;;4900280;29;20227;-79
2021/01/09 10:54:10;;;;;;;1999.90;999.90;;;3.00;99.90;;;;;;4900456;29;20211;-77
2021/01/09 10:56:44;;;;;;;1999.90;999.90;;;3.00;99.90;;;;;;4900486;29;20286;-77
2021/01/09 10:59:11;;;;;;;1999.90;999.90;;;3.10;99.90;;;;;;4900031;29;20443;-79
2021/01/09 11:01:37;;;;;;;1999.90;999.90;;;3.00;99.90;;;;;;4899350;29;20299;-80
2021/01/09 11:04:05;;;;;;;1999.90;999.90;;;2.90;99.90;;;;;;4899301;29;20207;-77
2021/01/09 11:06:31;;;;;;;1999.90;999.90;;;2.90;99.90;;;;;;4900112;29;20258;-81
2021/01/09 11:08:58;;;;;;;1999.90;999.90;;;2.90;99.90;;;;;;4901082;29;20283;-77
2021/01/09 11:11:26;;;;;;;1999.90;999.90;;;2.90;99.90;;;;;;4898763;29;20261;-77
2021/01/09 11:13:53;;;;;;;1999.90;999.90;;;3.00;99.90;;;;;;4879919;29;20211;-83
2021/01/09 11:16:21;;;;;;;1999.90;999.90;;;3.00;99.90;;;;;;4891537;23;20231;-79
2021/01/09 11:18:49;;;;;;;1999.90;999.90;;;3.00;99.90;;;;;;4882728;29;20207;-74
2021/01/09 11:21:17;;;;;;;1999.90;999.90;;;2.80;99.90;;;;;;4879781;29;20231;-74
2021/01/09 11:23:44;;;;;;;1999.90;999.90;;;2.90;99.90;;;;;;4879730;29;20212;-74
2021/01/09 11:26:11;;;;;;;1999.90;999.90;;;2.90;99.90;;;;;;4879795;29;20224;-77
2021/01/09 11:28:39;;;;;;;1999.90;999.90;;;2.90;99.90;;;;;;4880495;29;20228;-76
2021/01/09 11:31:08;;;;;;;1999.90;999.90;;;3.00;99.90;;;;;;4880846;29;20204;-77
2021/01/09 11:33:35;;;;;;;1999.90;999.90;;;3.00;99.90;;;;;;4881470;29;20629;-78
2021/01/09 11:36:02;;;;;;;1999.90;999.90;;;3.10;99.90;;;;;;4879846;29;20224;-76
2021/01/09 11:38:29;;;;;;;1999.90;999.90;;;3.10;99.90;;;;;;4881413;29;20204;-78
2021/01/09 11:40:56;;;;;;;1999.90;999.90;;;3.00;99.90;;;;;;4881270;29;20677;-77
2021/01/09 11:43:23;;;;;;;1999.90;999.90;;;2.90;99.90;;;;;;4879415;29;20207;-77
2021/01/09 11:45:51;;;;;;;1999.90;999.90;;;2.90;99.90;;;;;;4879612;29;20300;-78
2021/01/09 11:48:18;;;;;;;1999.90;999.90;;;3.00;99.90;;;;;;4885641;29;20216;-77
2021/01/09 11:50:45;;;;;;;1999.90;999.90;;;2.80;99.90;;;;;;4889130;29;20233;-77
2021/01/09 11:53:19;;;;;;;1999.90;999.90;;;2.90;99.90;;;;;;4883813;29;20212;-78
2021/01/09 11:55:46;;;;;;;1999.90;999.90;;;3.00;99.90;;;;;;4881998;29;20228;-78
2021/01/09 11:58:13;;;;;;;1999.90;999.90;;;3.10;99.90;;;;;;4880145;29;20248;-78
2021/01/09 12:00:39;;;;;;;1999.90;999.90;;;3.10;99.90;;;;;;4878358;29;20260;-77
2021/01/09 12:03:07;;;;;;;1999.90;999.90;;;3.10;99.90;;;;;;4878791;29;20208;-77
2021/01/09 12:05:34;;;;;;;1999.90;999.90;;;3.00;99.90;;;;;;4879355;29;20208;-76
2021/01/09 12:08:02;;;;;;;1999.90;999.90;;;3.00;99.90;;;;;;4879570;29;20306;-77
2021/01/09 12:10:29;;;;;;;1999.90;999.90;;;2.30;99.90;;;;;;4879601;29;20284;-77
2021/01/09 12:13:16;;;;;;;1999.90;999.90;;;2.80;99.90;;;;;;4879985;29;20214;-78
2021/01/09 12:15:47;;;;;;;1999.90;999.90;;;2.60;99.90;;;;;;4879712;29;20224;-77
2021/01/09 12:18:17;;;;;;;1999.90;999.90;;;2.60;99.90;;;;;;4880191;29;20204;-78
2021/01/09 12:20:44;;;;;;;1999.90;999.90;;;2.70;99.90;;;;;;4881232;29;20243;-78
2021/01/09 12:23:11;;;;;;;1999.90;999.90;;;2.70;99.90;;;;;;4880420;29;20204;-78
2021/01/09 12:25:37;;;;;;;1999.90;999.90;;;2.70;99.90;;;;;;4877033;29;20207;-77
2021/01/09 12:28:05;;;;;;;1999.90;999.90;;;2.60;99.90;;;;;;4862773;29;20214;-77
2021/01/09 12:30:32;;;;;;;1999.90;999.90;;;2.60;99.90;;;;;;4878863;29;20288;-77
2021/01/09 12:33:00;;;;;;;1999.90;999.90;;;2.60;99.90;;;;;;4878039;29;20212;-78
2021/01/09 12:35:28;;;;;;;1999.90;999.90;;;2.60;99.90;;;;;;4878524;29;20695;-77
2021/01/09 12:37:55;;;;;;;1999.90;999.90;;;2.80;99.90;;;;;;4878498;29;20753;-75
2021/01/09 12:40:22;;;;;;;1999.90;999.90;;;2.90;99.90;;;;;;4878179;29;20240;-75
2021/01/09 12:42:49;;;;;;;1999.90;999.90;;;2.90;99.90;;;;;;4878075;29;20272;-75
2021/01/09 12:45:16;;;;;;;1999.90;999.90;;;3.00;99.90;;;;;;4877994;29;20215;-75
2021/01/09 12:47:45;;;;;;;1999.90;999.90;;;2.90;99.90;;;;;;4877783;29;20235;-75
2021/01/09 12:50:12;;;;;;;1999.90;999.90;;;2.90;99.90;;;;;;4887500;29;20270;-75
2021/01/09 12:52:40;;;;;;;1999.90;999.90;;;2.80;99.90;;;;;;4896675;29;20213;-76
2021/01/09 12:55:08;;;;;;;1999.90;999.90;;;2.70;99.90;;;;;;4896367;29;20275;-76
2021/01/09 12:57:35;;;;;;;1999.90;999.90;;;2.60;99.90;;;;;;4896313;29;20369;-75
2021/01/09 13:00:01;;;;;;;1999.90;999.90;;;2.70;99.90;;;;;;4896422;29;20200;-75
2021/01/09 13:02:28;;;;;;;1999.90;999.90;;;2.90;99.90;;;;;;4896711;29;20207;-75
2021/01/09 13:04:56;;;;;;;1999.90;999.90;;;3.00;99.90;;;;;;4896711;29;20210;-74
2021/01/09 13:07:23;;;;;;;1999.90;999.90;;;3.10;99.90;;;;;;4870769;29;20261;-74
2021/01/09 13:09:51;;;;;;;1999.90;999.90;;;3.20;99.90;;;;;;4868848;29;20212;-74
2021/01/09 13:12:18;;;;;;;1999.90;999.90;;;3.30;99.90;;;;;;4866678;29;20212;-74
2021/01/09 13:14:45;;;;;;;1999.90;999.90;;;3.20;99.90;;;;;;4864502;29;20229;-74
2021/01/09 13:17:12;;;;;;;1999.90;999.90;;;3.30;99.90;;;;;;4869175;29;20368;-75
2021/01/09 13:19:39;;;;;;;1999.90;999.90;;;3.20;99.90;;;;;;4868831;29;20229;-76
2021/01/09 13:22:08;;;;;;;1999.90;999.90;;;3.30;99.90;;;;;;4869131;29;20660;-75
2021/01/09 13:24:36;;;;;;;1999.90;999.90;;;3.30;99.90;;;;;;4868722;29;20288;-75
2021/01/09 13:27:04;;;;;;;1999.90;999.90;;;3.30;99.90;;;;;;4868394;29;20280;-75
2021/01/09 13:29:31;;;;;;;1999.90;999.90;;;3.40;99.90;;;;;;4866829;29;20216;-75
2021/01/09 13:32:00;;;;;;;1999.90;999.90;;;3.50;99.90;;;;;;4868190;29;20617;-75
2021/01/09 13:34:27;;;;;;;1999.90;999.90;;;3.50;99.90;;;;;;4866634;29;20281;-75
2021/01/09 13:36:55;;;;;;;1999.90;999.90;;;3.60;99.90;;;;;;4867385;29;20225;-75
2021/01/09 13:39:22;;;;;;;1999.90;999.90;;;3.60;99.90;;;;;;4867243;29;20204;-75
2021/01/09 13:41:49;;;;;;;1999.90;999.90;;;3.60;99.90;;;;;;4869328;29;20205;-75
2021/01/09 13:44:17;;;;;;;1999.90;999.90;;;3.50;99.90;;;;;;4868186;29;20201;-75
2021/01/09 13:46:44;;;;;;;1999.90;999.90;;;3.50;99.90;;;;;;4868319;29;20304;-73
2021/01/09 13:49:11;;;;;;;1999.90;999.90;;;3.50;99.90;;;;;;4865857;29;20502;-74
2021/01/09 13:51:39;;;;;;;1999.90;999.90;;;3.50;99.90;;;;;;4875901;29;20847;-79
2021/01/09 13:54:08;;;;;;;1999.90;999.90;;;3.40;99.90;;;;;;4876546;29;20212;-76
2021/01/09 13:56:36;;;;;;;1999.90;999.90;;;3.40;99.90;;;;;;4875643;29;20228;-77
2021/01/09 13:59:04;;;;;;;1999.90;999.90;;;3.50;99.90;;;;;;4875941;29;20230;-77
2021/01/09 14:01:31;;;;;;;1999.90;999.90;;;3.50;99.90;;;;;;4875736;29;20260;-77
2021/01/09 14:03:58;;;;;;;1999.90;999.90;;;3.40;99.90;;;;;;4875066;29;20212;-77
2021/01/09 14:06:25;;;;;;;1999.90;999.90;;;3.30;99.90;;;;;;4874991;29;20228;-78
2021/01/09 14:08:52;;;;;;;1999.90;999.90;;;3.40;99.90;;;;;;4878412;29;20754;-75
2021/01/09 14:11:21;;;;;;;1999.90;999.90;;;3.20;99.90;;;;;;4880262;29;20256;-78
2021/01/09 14:13:49;;;;;;;1999.90;999.90;;;3.20;99.90;;;;;;4880309;29;20212;-76
2021/01/09 14:16:25;;;;;;;1999.90;999.90;;;3.10;99.90;;;;;;4881516;29;20905;-77
2021/01/09 14:18:54;;;;;;;1999.90;999.90;;;3.10;99.90;;;;;;4880858;29;20204;-77
2021/01/09 14:21:22;;;;;;;1999.90;999.90;;;3.10;99.90;;;;;;4881156;29;20212;-76
2021/01/09 14:23:51;;;;;;;1999.90;999.90;;;3.00;99.90;;;;;;4880880;29;20208;-77
2021/01/09 14:26:18;;;;;;;1999.90;999.90;;;3.10;99.90;;;;;;4880783;29;20232;-77
2021/01/09 14:28:45;;;;;;;1999.90;999.90;;;3.20;99.90;;;;;;4880430;29;20208;-77
2021/01/09 14:31:16;;;;;;;1999.90;999.90;;;3.10;99.90;;;;;;4880589;29;20208;-77
2021/01/09 14:33:43;;;;;;;1999.90;999.90;;;3.10;99.90;;;;;;4882052;29;20665;-79
2021/01/09 14:36:16;;;;;;;1999.90;999.90;;;2.90;99.90;;;;;;4881169;29;20634;-77
2021/01/09 14:38:43;;;;;;;1999.90;999.90;;;2.90;99.90;;;;;;4880860;29;20208;-77
2021/01/09 14:41:10;;;;;;;1999.90;999.90;;;2.80;99.90;;;;;;4881154;29;20211;-77
2021/01/09 14:43:37;;;;;;;1999.90;999.90;;;2.80;99.90;;;;;;4881594;29;20612;-77
2021/01/09 14:46:04;;;;;;;1999.90;999.90;;;2.90;99.90;;;;;;4881460;29;20239;-77
2021/01/09 14:48:31;;;;;;;1999.90;999.90;;;2.80;99.90;;;;;;4881602;29;20208;-77
2021/01/09 14:50:58;;;;;;;1999.90;999.90;;;2.80;99.90;;;;;;4880450;29;20227;-77
2021/01/09 14:53:26;;;;;;;1999.90;999.90;;;2.80;99.90;;;;;;4880609;29;20264;-77
2021/01/09 14:55:53;;;;;;;1999.90;999.90;;;2.80;99.90;;;;;;4866656;29;20380;-78
2021/01/09 14:58:21;;;;;;;1999.90;999.90;;;2.80;99.90;;;;;;4862963;29;20645;-78
2021/01/09 15:00:51;;;;;;;1999.90;999.90;;;2.90;99.90;;;;;;4862056;29;20212;-77
2021/01/09 15:03:18;;;;;;;1999.90;999.90;;;2.90;99.90;;;;;;4861483;29;20641;-78
2021/01/09 15:05:45;;;;;;;1999.90;999.90;;;3.10;99.90;;;;;;4861768;29;20229;-78
2021/01/09 15:08:13;;;;;;;1999.90;999.90;;;3.10;99.90;;;;;;4861355;29;20205;-77
2021/01/09 15:10:42;;;;;;;1999.90;999.90;;;3.10;99.90;;;;;;4861597;29;20235;-77
2021/01/09 15:13:09;;;;;;;1999.90;999.90;;;2.90;99.90;;;;;;4861237;29;20216;-76
2021/01/09 15:15:36;;;;;;;1999.90;999.90;;;2.90;99.90;;;;;;4859327;29;20272;-77
2021/01/09 15:18:03;;;;;;;1999.90;999.90;;;2.90;99.90;;;;;;4861213;29;20204;-77
2021/01/09 15:20:30;;;;;;;1999.90;999.90;;;3.00;99.90;;;;;;4861507;29;20692;-76
2021/01/09 15:22:57;;;;;;;1999.90;999.90;;;2.80;99.90;;;;;;4861414;29;20672;-76
2021/01/09 15:25:23;;;;;;;1999.90;999.90;;;2.90;99.90;;;;;;4861131;29;20674;-76
2021/01/09 15:27:54;;;;;;;1999.90;999.90;;;2.80;99.90;;;;;;4860960;29;20212;-76
2021/01/09 15:30:21;;;;;;;1999.90;999.90;;;2.90;99.90;;;;;;4861023;29;20233;-76
2021/01/09 15:32:48;;;;;;;1999.90;999.90;;;2.90;99.90;;;;;;4855385;29;20216;-76
2021/01/09 15:35:15;;;;;;;1999.90;999.90;;;2.90;99.90;;;;;;4861116;29;20216;-76
2021/01/09 15:37:42;;;;;;;1999.90;999.90;;;2.90;99.90;;;;;;4860663;29;20785;-76
2021/01/09 15:40:10;;;;;;;1999.90;999.90;;;2.90;99.90;;;;;;4861185;29;20348;-76
2021/01/09 15:42:37;;;;;;;1999.90;999.90;;;2.70;99.90;;;;;;4861109;29;20209;-76
2021/01/09 15:45:06;;;;;;;1999.90;999.90;;;2.80;99.90;;;;;;4864241;29;20279;-75
2021/01/09 15:47:33;;;;;;;1999.90;999.90;;;2.80;99.90;;;;;;4873121;29;20228;-76
2021/01/09 15:50:01;;;;;;;1999.90;999.90;;;2.80;99.90;;;;;;4878579;29;20272;-76
2021/01/09 15:52:29;;;;;;;1999.90;999.90;;;2.90;99.90;;;;;;4878935;29;20208;-76
2021/01/09 15:54:57;;;;;;;1999.90;999.90;;;2.70;99.90;;;;;;4878967;29;20296;-76
2021/01/09 15:57:24;;;;;;;1999.90;999.90;;;2.70;99.90;;;;;;4879147;29;20297;-76
2021/01/09 15:59:51;;;;;;;1999.90;999.90;;;2.80;99.90;;;;;;4878806;29;20264;-76
2021/01/09 16:02:18;;;;;;;1999.90;999.90;;;2.80;99.90;;;;;;4878897;29;20212;-76
2021/01/09 16:04:46;;;;;;;1999.90;999.90;;;2.60;99.90;;;;;;4890781;29;20216;-76
2021/01/09 16:07:12;;;;;;;1999.90;999.90;;;2.80;99.90;;;;;;4897004;29;20788;-76
2021/01/09 16:09:39;;;;;;;1999.90;999.90;;;2.70;99.90;;;;;;4897206;29;20314;-73
2021/01/09 16:12:07;;;;;;;1999.90;999.90;;;2.80;99.90;;;;;;4897467;29;20214;-73
2021/01/09 16:14:34;;;;;;;1999.90;999.90;;;2.80;99.90;;;;;;4896703;29;20690;-74
2021/01/09 16:17:01;;;;;;;1999.90;999.90;;;2.70;99.90;;;;;;4895005;29;20254;-74
2021/01/09 16:19:28;;;;;;;1999.90;999.90;;;2.80;99.90;;;;;;4887699;29;20261;-74
2021/01/09 16:21:59;;;;;;;1999.90;999.90;;;2.70;99.90;;;;;;4884118;29;20618;-74
2021/01/09 16:24:26;;;;;;;1999.90;999.90;;;2.70;99.90;;;;;;4895907;29;20239;-73
2021/01/09 16:26:54;;;;;;;1999.90;999.90;;;2.70;99.90;;;;;;4895743;29;20238;-75
2021/01/09 16:29:22;;;;;;;1999.90;999.90;;;2.80;99.90;;;;;;4895356;29;20227;-75
2021/01/09 16:31:53;;;;;;;1999.90;999.90;;;2.90;99.90;;;;;;4895947;29;20696;-74
2021/01/09 16:34:41;;;;;;;1999.90;999.90;;;2.80;99.90;;;;;;4896605;29;20752;-74
2021/01/09 16:37:08;;;;;;;1999.90;999.90;;;2.90;99.90;;;;;;4878580;29;20235;-73
2021/01/09 16:39:35;;;;;;;1999.90;999.90;;;2.90;99.90;;;;;;4878007;29;20204;-74
2021/01/09 16:42:03;;;;;;;1999.90;999.90;;;2.90;99.90;;;;;;4878016;29;20260;-72
2021/01/09 16:44:30;;;;;;;1999.90;999.90;;;2.90;99.90;;;;;;4878169;29;20211;-72
2021/01/09 16:46:59;;;;;;;1999.90;999.90;;;2.80;99.90;;;;;;4877978;29;20323;-71
2021/01/09 16:49:27;;;;;;;1999.90;999.90;;;2.80;99.90;;;;;;4878214;29;20231;-75
2021/01/09 16:51:55;;;;;;;1999.90;999.90;;;2.90;99.90;;;;;;4878277;29;20211;-77
2021/01/09 16:54:22;;;;;;;1999.90;999.90;;;3.10;99.90;;;;;;4879531;29;20684;-76
2021/01/09 16:56:49;;;;;;;1999.90;999.90;;;3.00;99.90;;;;;;4877710;29;20716;-74
2021/01/09 16:59:16;;;;;;;1999.90;999.90;;;3.00;99.90;;;;;;4877857;29;20252;-75
2021/01/09 17:01:43;;;;;;;1999.90;999.90;;;3.00;99.90;;;;;;4877929;29;20216;-73
2021/01/09 17:04:10;;;;;;;1999.90;999.90;;;2.90;99.90;;;;;;4878019;29;20208;-71
2021/01/09 17:06:44;;;;;;;1999.90;999.90;;;2.90;99.90;;;;;;4877924;29;20232;-74
2021/01/09 17:09:12;;;;;;;1999.90;999.90;;;2.80;99.90;;;;;;4877902;29;20219;-74
2021/01/09 17:11:40;;;;;;;1999.90;999.90;;;2.70;99.90;;;;;;4877798;29;20761;-75
2021/01/09 17:14:09;;;;;;;1999.90;999.90;;;2.80;99.90;;;;;;4877817;29;20215;-74
2021/01/09 17:16:36;;;;;;;1999.90;999.90;;;2.90;99.90;;;;;;4901146;23;20331;-78